Pagina principale
METAR-TAF:

METAR-TAF

Aeroporti :

Frontone, Italia

latitudine: 43-31N, longitudine: 012-44E, altezza: 570 m

Osservazione

Il bollettino è stato emesso 1 ora e 16 minuti fa, alle 09:55 UTC
Vento calmo
Temperature 10°C
Umidità 93%
Pressione 1021 hPa
Visibilità: 1200 m
Nuvoloso ad un'altezza di 500 ft
Nubi sparse ad un'altezza di 1000 ft
pioviggine debole, foschia

METAR: LIVF 260955Z 00000KT 1200 -DZ BR BKN005 SCT010 10/09 Q1021 RMK OVC MON INVIS VAL INVIS VIS MIN 1200

Ora: 13:11 (11:11 UTC)


TAF: mancante

Osservazioni e previsioni meteorologiche di più di 4000 aeroporti (messaggi METAR e TAF).

Le stazioni disponibili sono rappresentate dai dischi gialli e rossi sulla carta.

Puntare il mouse per vedere il nome della stazione.

Clicca sopra per visualizzare le osservazioni e previsioni meteorologiche.

Per cambiare la mappa : fare clic sui pulsanti verdi con una croce nera per ingrandire, il pulsante verde con un trattino per diminuire, o sulla freccia verde per le mappe adiacenti.


METAR-TAF: